createdAt,value
2022-10-20T00:04:31.603Z,40.16438
2022-10-20T00:09:33.289Z,40.64984
2022-10-20T00:14:35.230Z,42.85336
2022-10-20T00:19:37.380Z,41.90885
2022-10-20T00:24:39.074Z,42.24471
2022-10-20T00:29:41.132Z,42.6935
2022-10-20T00:34:42.854Z,43.3498
2022-10-20T00:39:44.775Z,44.00163
2022-10-20T00:44:46.479Z,44.38054
2022-10-20T00:49:48.482Z,44.68035
2022-10-20T00:54:50.815Z,45.04089
2022-10-20T00:59:52.548Z,48.85001
2022-10-20T01:04:54.494Z,45.73917
2022-10-20T01:09:56.634Z,46.87064
2022-10-20T01:14:58.654Z,46.06955
2022-10-20T01:20:00.472Z,46.88067
2022-10-20T01:25:02.405Z,47.90241
2022-10-20T01:30:04.465Z,47.31236
2022-10-20T01:35:06.137Z,49.73058
2022-10-20T01:40:08.055Z,49.20334
2022-10-20T01:45:09.805Z,48.26711
2022-10-20T01:50:11.398Z,49.41068
2022-10-20T01:55:13.141Z,50.75199
2022-10-20T02:00:14.771Z,52.11575
2022-10-20T02:05:16.396Z,50.7688
2022-10-20T02:10:18.049Z,54.36851
2022-10-20T02:15:19.698Z,52.96217
2022-10-20T02:20:21.331Z,50.78923
2022-10-20T02:25:22.996Z,51.44257
2022-10-20T02:30:24.651Z,50.80309
2022-10-20T02:35:26.281Z,51.25268
2022-10-20T02:40:27.880Z,54.354
2022-10-20T02:45:29.528Z,53.59756
2022-10-20T02:50:31.174Z,54.25052
2022-10-20T02:55:32.772Z,52.59054
2022-10-20T03:00:34.411Z,52.59468
2022-10-20T03:05:36.192Z,52.31093
2022-10-20T03:10:37.824Z,53.28002
2022-10-20T03:15:39.442Z,56.96158
2022-10-20T03:20:41.049Z,55.88409
2022-10-20T03:25:42.803Z,55.83052
2022-10-20T03:30:44.405Z,54.09718
2022-10-20T03:35:46.905Z,54.06761
2022-10-20T03:40:48.729Z,57.19704
2022-10-20T03:45:50.378Z,52.91941
2022-10-20T03:50:52.022Z,58.79562
2022-10-20T03:55:53.670Z,56.62605
2022-10-20T04:00:55.269Z,55.31639
2022-10-20T04:05:56.776Z,56.21767
2022-10-20T04:10:58.393Z,54.15199
2022-10-20T04:16:00.003Z,56.5538
2022-10-20T04:21:01.650Z,55.37956
2022-10-20T04:26:03.381Z,56.2026
2022-10-20T04:31:04.998Z,58.13697
2022-10-20T04:36:06.602Z,54.69538
2022-10-20T04:41:08.263Z,58.72898
2022-10-20T04:46:09.886Z,60.258
2022-10-20T04:51:11.484Z,59.24121
2022-10-20T04:56:13.229Z,59.22099
2022-10-20T05:01:14.986Z,57.78799
2022-10-20T05:06:16.721Z,57.73574
2022-10-20T05:11:18.344Z,59.52739
2022-10-20T05:16:20.059Z,55.90523
2022-10-20T05:21:21.777Z,61.91406
2022-10-20T05:26:23.358Z,58.8935
2022-10-20T05:31:25.118Z,60.42073
2022-10-20T05:36:26.772Z,60.62235
2022-10-20T05:41:28.379Z,62.37183
2022-10-20T05:46:29.989Z,59.68118
2022-10-20T05:51:31.618Z,59.50137
2022-10-20T05:56:33.208Z,61.47356
2022-10-20T06:01:34.805Z,59.90244
2022-10-20T06:06:36.437Z,62.00642
2022-10-20T06:11:39.501Z,64.42772
2022-10-20T06:16:41.447Z,59.11268
2022-10-20T06:26:44.886Z,62.20451
2022-10-20T06:31:46.483Z,68.67805
2022-10-20T06:36:48.104Z,62.16237
2022-10-20T06:41:49.748Z,57.3423
2022-10-20T06:46:51.378Z,64.51943
2022-10-20T06:51:53.198Z,66.78446
2022-10-20T06:56:54.775Z,62.56467
2022-10-20T07:01:56.398Z,61.27098
2022-10-20T07:06:58.041Z,63.05747
2022-10-20T07:11:59.644Z,61.34213
2022-10-20T07:17:01.282Z,60.87135
2022-10-20T07:22:03.036Z,61.67949
2022-10-20T07:27:04.673Z,63.89633
2022-10-20T07:32:06.275Z,62.28174
2022-10-20T07:37:07.976Z,61.17099
2022-10-20T07:42:09.687Z,65.46077
2022-10-20T07:47:11.336Z,60.26729
2022-10-20T07:52:12.956Z,62.76925
2022-10-20T07:57:14.611Z,66.21588
2022-10-20T08:02:16.295Z,62.82746
2022-10-20T08:07:17.983Z,58.94723
2022-10-20T08:12:19.700Z,63.56564
2022-10-20T08:17:22.128Z,61.04929
2022-10-20T08:22:23.835Z,62.46193
2022-10-20T08:27:25.503Z,62.78025
2022-10-20T08:32:27.094Z,61.51821
2022-10-20T08:37:28.691Z,63.77194
2022-10-20T08:42:30.289Z,63.96611
2022-10-20T08:47:33.440Z,63.50297
2022-10-20T08:52:35.438Z,64.11789
2022-10-20T08:57:37.116Z,65.16553
2022-10-20T09:02:38.827Z,64.29709
2022-10-20T09:07:40.580Z,63.64075
2022-10-20T09:12:42.201Z,65.16285
2022-10-20T09:17:43.843Z,67.31466
2022-10-20T09:22:45.434Z,65.94805
2022-10-20T09:27:47.036Z,63.66216
2022-10-20T09:32:48.884Z,67.49106
2022-10-20T09:37:50.602Z,65.16376
2022-10-20T09:42:52.267Z,64.89704
2022-10-20T09:47:53.987Z,67.43445
2022-10-20T09:52:55.581Z,68.88737
2022-10-20T09:57:57.281Z,63.97043
2022-10-20T10:02:59.018Z,62.92883
2022-10-20T10:08:00.629Z,61.75007
2022-10-20T10:13:02.339Z,63.1804
2022-10-20T10:18:04.006Z,64.26494
2022-10-20T10:23:05.611Z,66.70377
2022-10-20T10:28:07.444Z,65.02472
2022-10-20T10:33:09.051Z,62.20922
2022-10-20T10:38:10.650Z,62.69153
2022-10-20T10:43:12.326Z,64.37801
2022-10-20T10:48:14.112Z,65.86655
2022-10-20T10:53:15.732Z,66.95813
2022-10-20T10:58:17.380Z,64.71957
2022-10-20T11:03:19.079Z,63.60773
2022-10-20T11:08:20.689Z,62.94024
2022-10-20T11:13:24.558Z,64.55497
2022-10-20T11:18:28.621Z,64.42386
2022-10-20T11:23:30.263Z,65.90649
2022-10-20T11:28:31.950Z,67.17855
2022-10-20T11:33:35.723Z,65.84427
2022-10-20T11:38:39.644Z,66.51697
2022-10-20T11:43:41.373Z,65.03451
2022-10-20T11:48:42.954Z,68.82776
2022-10-20T11:53:44.860Z,69.52747
2022-10-20T11:58:46.518Z,71.2806
2022-10-20T12:03:48.146Z,67.5589
2022-10-20T12:08:49.787Z,66.63874
2022-10-20T12:13:51.442Z,65.39384
2022-10-20T12:18:53.155Z,65.70965
2022-10-20T12:23:54.849Z,66.22885
2022-10-20T12:28:56.442Z,66.74737
2022-10-20T12:33:58.086Z,67.44471
2022-10-20T12:38:59.734Z,66.51302
2022-10-20T12:44:01.349Z,68.30197
2022-10-20T12:49:05.535Z,69.39922
2022-10-20T12:54:10.062Z,66.92685
2022-10-20T12:59:11.667Z,67.20233
2022-10-20T13:04:13.353Z,65.69187
2022-10-20T13:09:14.988Z,67.27389
2022-10-20T13:14:16.618Z,65.94725
2022-10-20T13:19:18.232Z,67.1814
2022-10-20T13:24:19.874Z,66.69905
2022-10-20T13:29:21.522Z,66.43079
2022-10-20T13:34:23.158Z,67.35139
2022-10-20T13:39:24.878Z,68.21665
2022-10-20T13:44:31.196Z,67.58312
2022-10-20T13:49:33.899Z,66.86689
2022-10-20T13:54:35.499Z,68.40865
2022-10-20T13:59:38.626Z,65.44346
2022-10-20T14:04:42.326Z,69.91242
2022-10-20T14:09:47.451Z,66.3142
2022-10-20T14:14:51.056Z,67.34104
2022-10-20T14:19:52.631Z,68.30435
2022-10-20T14:24:54.238Z,69.42937
2022-10-20T14:29:55.982Z,67.312
2022-10-20T14:39:58.176Z,66.71339
2022-10-20T14:44:59.856Z,69.35528
2022-10-20T14:50:01.611Z,65.59611
2022-10-20T14:55:03.272Z,68.50897
2022-10-20T15:00:05.134Z,69.21497
2022-10-20T15:05:06.810Z,67.85017
2022-10-20T15:10:08.407Z,65.32898
2022-10-20T15:15:10.165Z,66.09642
2022-10-20T15:20:11.853Z,69.07017
2022-10-20T15:25:13.692Z,66.01637
2022-10-20T15:30:15.280Z,63.79972
2022-10-20T15:35:16.933Z,65.4372
2022-10-20T15:40:18.559Z,66.76474
2022-10-20T15:45:20.130Z,64.184
2022-10-20T15:50:24.225Z,64.35383
2022-10-20T15:55:26.686Z,63.1782
2022-10-20T16:00:28.278Z,64.7752
2022-10-20T16:05:29.886Z,63.35649
2022-10-20T16:10:31.606Z,64.79044
2022-10-20T16:15:33.240Z,64.76965
2022-10-20T16:20:34.865Z,63.41587
2022-10-20T16:25:36.431Z,63.57217
2022-10-20T16:30:38.026Z,63.51769
2022-10-20T16:35:39.701Z,64.47404
2022-10-20T16:40:41.454Z,65.13862
2022-10-20T16:45:43.141Z,67.5144
2022-10-20T16:50:44.813Z,65.97394
2022-10-20T16:55:46.542Z,67.5272
2022-10-20T17:00:48.190Z,64.04207
2022-10-20T17:05:49.858Z,62.91057
2022-10-20T17:10:51.509Z,62.59525
2022-10-20T17:15:53.128Z,65.37125
2022-10-20T17:20:54.733Z,64.48872
2022-10-20T17:25:56.346Z,63.21096
2022-10-20T17:30:57.971Z,62.08174
2022-10-20T17:35:59.564Z,60.18351
2022-10-20T17:41:01.232Z,60.6525
2022-10-20T17:46:02.850Z,60.78783
2022-10-20T17:51:04.536Z,62.82574
2022-10-20T17:56:06.173Z,63.4142
2022-10-20T18:01:07.816Z,61.52225
2022-10-20T18:06:09.515Z,59.94531
2022-10-20T18:11:11.142Z,62.02174
2022-10-20T18:16:12.748Z,63.19578
2022-10-20T18:21:14.341Z,62.10812
2022-10-20T18:26:15.934Z,60.16619
2022-10-20T18:31:17.555Z,60.27873
2022-10-20T18:36:19.217Z,60.83945
2022-10-20T18:41:20.900Z,63.49849
2022-10-20T18:46:22.558Z,61.21799
2022-10-20T18:51:24.190Z,61.0731
2022-10-20T18:56:25.885Z,60.81607
2022-10-20T19:01:27.643Z,60.68137
2022-10-20T19:06:29.336Z,61.6301
2022-10-20T19:11:31.072Z,60.10153
2022-10-20T19:16:32.692Z,59.12439
2022-10-20T19:21:34.399Z,57.04328
2022-10-20T19:26:36.009Z,57.18294
2022-10-20T19:31:37.608Z,58.75167
2022-10-20T19:36:39.246Z,56.60112
2022-10-20T19:41:40.867Z,54.16171
2022-10-20T19:46:42.493Z,54.5014
2022-10-20T19:51:44.150Z,49.69132
2022-10-20T19:56:45.828Z,52.74236
2022-10-20T20:01:47.446Z,50.51203
2022-10-20T20:06:49.177Z,52.96831
2022-10-20T20:11:50.847Z,52.06672
2022-10-20T20:16:52.455Z,49.99383
2022-10-20T20:21:54.094Z,50.94594
2022-10-20T20:26:55.759Z,50.58742
2022-10-20T20:31:57.381Z,50.4687
2022-10-20T20:36:59.039Z,52.09527
2022-10-20T20:42:00.742Z,50.66197
2022-10-20T20:47:02.384Z,50.64486
2022-10-20T20:52:03.958Z,50.47601
2022-10-20T20:57:05.610Z,48.53267
2022-10-20T21:02:07.312Z,47.39386
2022-10-20T21:07:08.940Z,49.41125
2022-10-20T21:17:12.241Z,47.93166
2022-10-20T21:22:13.859Z,47.33637
2022-10-20T21:27:15.461Z,45.21831
2022-10-20T21:32:17.057Z,44.72567
2022-10-20T21:37:18.689Z,44.70479
2022-10-20T21:42:20.314Z,47.68034
2022-10-20T21:47:21.969Z,43.92184
2022-10-20T21:52:23.583Z,46.64994
2022-10-20T21:57:25.320Z,48.31731
2022-10-20T22:02:26.933Z,45.91105
2022-10-20T22:07:28.672Z,47.47833
2022-10-20T22:12:30.424Z,46.34197
2022-10-20T22:17:32.056Z,50.12739
2022-10-20T22:22:33.725Z,47.46321
2022-10-20T22:27:42.308Z,43.03487
2022-10-20T22:32:44.391Z,43.90297
2022-10-20T22:37:45.996Z,45.5385
2022-10-20T22:42:47.683Z,45.50963
2022-10-20T22:47:49.282Z,46.46454
2022-10-20T22:52:50.895Z,45.3991
2022-10-20T22:57:52.591Z,47.81193
2022-10-20T23:02:54.309Z,46.55392
2022-10-20T23:07:55.949Z,46.0958
2022-10-20T23:12:57.819Z,44.95513
2022-10-20T23:17:59.461Z,46.83922
2022-10-20T23:23:01.125Z,47.14689
2022-10-20T23:28:02.837Z,46.97528
2022-10-20T23:33:04.636Z,46.32296
2022-10-20T23:38:06.240Z,47.76906
2022-10-20T23:43:07.804Z,47.26959
2022-10-20T23:48:09.514Z,47.56764
2022-10-20T23:53:11.127Z,47.82382
2022-10-20T23:58:12.751Z,48.25492
